sensor_id;sensor_type;location;lat;lon;timestamp;P1;durP1;ratioP1;P2;durP2;ratioP2
22812;SDS011;11573;51.334;3.244;2023-07-28T00:00:47;39.20;;;23.90;;
22812;SDS011;11573;51.334;3.244;2023-07-28T00:03:14;36.03;;;24.15;;
22812;SDS011;11573;51.334;3.244;2023-07-28T00:05:41;42.70;;;23.30;;
22812;SDS011;11573;51.334;3.244;2023-07-28T00:08:08;48.78;;;21.67;;
22812;SDS011;11573;51.334;3.244;2023-07-28T00:10:39;33.00;;;18.75;;
22812;SDS011;11573;51.334;3.244;2023-07-28T00:13:08;41.75;;;20.25;;
22812;SDS011;11573;51.334;3.244;2023-07-28T00:15:35;45.67;;;18.42;;
22812;SDS011;11573;51.334;3.244;2023-07-28T00:18:02;31.52;;;17.70;;
22812;SDS011;11573;51.334;3.244;2023-07-28T00:20:29;36.67;;;17.17;;
22812;SDS011;11573;51.334;3.244;2023-07-28T00:22:56;34.10;;;14.18;;
22812;SDS011;11573;51.334;3.244;2023-07-28T00:25:25;31.67;;;13.90;;
22812;SDS011;11573;51.334;3.244;2023-07-28T00:27:52;21.38;;;12.18;;
22812;SDS011;11573;51.334;3.244;2023-07-28T00:30:19;31.63;;;13.60;;
22812;SDS011;11573;51.334;3.244;2023-07-28T00:32:46;24.80;;;12.90;;
22812;SDS011;11573;51.334;3.244;2023-07-28T00:35:13;28.23;;;10.10;;
22812;SDS011;11573;51.334;3.244;2023-07-28T00:37:40;24.00;;;8.95;;
22812;SDS011;11573;51.334;3.244;2023-07-28T00:40:07;24.88;;;8.70;;
22812;SDS011;11573;51.334;3.244;2023-07-28T00:42:35;25.38;;;9.70;;
22812;SDS011;11573;51.334;3.244;2023-07-28T00:45:02;26.10;;;10.15;;
22812;SDS011;11573;51.334;3.244;2023-07-28T00:47:30;23.30;;;9.27;;
22812;SDS011;11573;51.334;3.244;2023-07-28T00:49:57;22.83;;;7.53;;
22812;SDS011;11573;51.334;3.244;2023-07-28T00:52:24;19.35;;;6.45;;
22812;SDS011;11573;51.334;3.244;2023-07-28T00:54:51;18.33;;;6.50;;
22812;SDS011;11573;51.334;3.244;2023-07-28T00:57:19;24.38;;;6.35;;
22812;SDS011;11573;51.334;3.244;2023-07-28T00:59:46;22.00;;;5.85;;
22812;SDS011;11573;51.334;3.244;2023-07-28T01:02:17;19.52;;;6.32;;
22812;SDS011;11573;51.334;3.244;2023-07-28T01:04:44;22.98;;;6.50;;
22812;SDS011;11573;51.334;3.244;2023-07-28T01:12:35;11.73;;;5.00;;
22812;SDS011;11573;51.334;3.244;2023-07-28T01:15:02;17.15;;;5.90;;
22812;SDS011;11573;51.334;3.244;2023-07-28T01:17:29;12.75;;;6.05;;
22812;SDS011;11573;51.334;3.244;2023-07-28T01:19:56;18.27;;;6.05;;
22812;SDS011;11573;51.334;3.244;2023-07-28T01:27:46;19.58;;;6.03;;
22812;SDS011;11573;51.334;3.244;2023-07-28T01:30:13;23.60;;;6.25;;
22812;SDS011;11573;51.334;3.244;2023-07-28T01:32:40;14.07;;;5.30;;
22812;SDS011;11573;51.334;3.244;2023-07-28T01:35:07;19.50;;;5.60;;
22812;SDS011;11573;51.334;3.244;2023-07-28T01:37:34;22.50;;;5.78;;
22812;SDS011;11573;51.334;3.244;2023-07-28T01:40:01;19.80;;;6.22;;
22812;SDS011;11573;51.334;3.244;2023-07-28T01:42:29;21.45;;;6.18;;
22812;SDS011;11573;51.334;3.244;2023-07-28T01:44:56;19.60;;;6.43;;
22812;SDS011;11573;51.334;3.244;2023-07-28T01:47:23;19.13;;;6.15;;
22812;SDS011;11573;51.334;3.244;2023-07-28T01:49:51;21.00;;;6.00;;
22812;SDS011;11573;51.334;3.244;2023-07-28T01:52:18;21.23;;;6.65;;
22812;SDS011;11573;51.334;3.244;2023-07-28T01:54:45;26.67;;;6.60;;
22812;SDS011;11573;51.334;3.244;2023-07-28T01:57:13;19.13;;;6.38;;
22812;SDS011;11573;51.334;3.244;2023-07-28T01:59:40;19.25;;;6.32;;
22812;SDS011;11573;51.334;3.244;2023-07-28T02:02:07;20.73;;;6.40;;
22812;SDS011;11573;51.334;3.244;2023-07-28T02:04:34;22.95;;;6.82;;
22812;SDS011;11573;51.334;3.244;2023-07-28T02:07:01;23.55;;;6.82;;
22812;SDS011;11573;51.334;3.244;2023-07-28T02:09:28;20.90;;;6.45;;
22812;SDS011;11573;51.334;3.244;2023-07-28T02:11:55;18.55;;;6.70;;
22812;SDS011;11573;51.334;3.244;2023-07-28T02:14:22;17.98;;;7.10;;
22812;SDS011;11573;51.334;3.244;2023-07-28T02:16:49;32.38;;;7.72;;
22812;SDS011;11573;51.334;3.244;2023-07-28T02:19:16;23.60;;;7.13;;
22812;SDS011;11573;51.334;3.244;2023-07-28T02:21:43;32.95;;;8.25;;
22812;SDS011;11573;51.334;3.244;2023-07-28T02:24:10;32.17;;;8.30;;
22812;SDS011;11573;51.334;3.244;2023-07-28T02:26:37;28.90;;;8.98;;
22812;SDS011;11573;51.334;3.244;2023-07-28T02:29:04;28.50;;;8.10;;
22812;SDS011;11573;51.334;3.244;2023-07-28T02:31:31;30.63;;;8.73;;
22812;SDS011;11573;51.334;3.244;2023-07-28T02:33:58;27.63;;;7.85;;
22812;SDS011;11573;51.334;3.244;2023-07-28T02:36:25;26.92;;;8.23;;
22812;SDS011;11573;51.334;3.244;2023-07-28T02:38:52;33.80;;;9.32;;
22812;SDS011;11573;51.334;3.244;2023-07-28T02:41:19;30.08;;;9.40;;
22812;SDS011;11573;51.334;3.244;2023-07-28T02:43:46;24.75;;;8.98;;
22812;SDS011;11573;51.334;3.244;2023-07-28T02:46:13;24.92;;;8.50;;
22812;SDS011;11573;51.334;3.244;2023-07-28T02:48:40;29.35;;;8.77;;
22812;SDS011;11573;51.334;3.244;2023-07-28T02:51:07;27.08;;;8.55;;
22812;SDS011;11573;51.334;3.244;2023-07-28T02:53:34;21.33;;;7.53;;
22812;SDS011;11573;51.334;3.244;2023-07-28T02:56:01;35.63;;;8.35;;
22812;SDS011;11573;51.334;3.244;2023-07-28T02:58:28;29.48;;;8.68;;
22812;SDS011;11573;51.334;3.244;2023-07-28T03:00:55;25.40;;;9.07;;
22812;SDS011;11573;51.334;3.244;2023-07-28T03:03:31;25.40;;;8.23;;
22812;SDS011;11573;51.334;3.244;2023-07-28T03:05:58;37.03;;;9.25;;
22812;SDS011;11573;51.334;3.244;2023-07-28T03:08:25;22.98;;;8.77;;
22812;SDS011;11573;51.334;3.244;2023-07-28T03:11:03;27.70;;;9.32;;
22812;SDS011;11573;51.334;3.244;2023-07-28T03:13:30;30.60;;;9.35;;
22812;SDS011;11573;51.334;3.244;2023-07-28T03:15:57;21.70;;;8.32;;
22812;SDS011;11573;51.334;3.244;2023-07-28T03:18:24;25.42;;;10.05;;
22812;SDS011;11573;51.334;3.244;2023-07-28T03:20:52;25.60;;;10.85;;
22812;SDS011;11573;51.334;3.244;2023-07-28T03:23:19;24.10;;;10.32;;
22812;SDS011;11573;51.334;3.244;2023-07-28T03:25:45;25.70;;;11.40;;
22812;SDS011;11573;51.334;3.244;2023-07-28T03:28:12;25.17;;;9.73;;
22812;SDS011;11573;51.334;3.244;2023-07-28T03:30:39;34.38;;;11.35;;
22812;SDS011;11573;51.334;3.244;2023-07-28T03:33:07;29.98;;;10.18;;
22812;SDS011;11573;51.334;3.244;2023-07-28T03:35:34;24.40;;;11.05;;
22812;SDS011;11573;51.334;3.244;2023-07-28T03:38:07;26.35;;;9.65;;
22812;SDS011;11573;51.334;3.244;2023-07-28T03:40:34;29.35;;;10.23;;
22812;SDS011;11573;51.334;3.244;2023-07-28T03:43:02;27.75;;;9.20;;
22812;SDS011;11573;51.334;3.244;2023-07-28T03:45:29;26.13;;;9.32;;
22812;SDS011;11573;51.334;3.244;2023-07-28T03:47:56;21.25;;;8.90;;
22812;SDS011;11573;51.334;3.244;2023-07-28T03:50:23;17.67;;;9.43;;
22812;SDS011;11573;51.334;3.244;2023-07-28T03:52:52;25.00;;;8.60;;
22812;SDS011;11573;51.334;3.244;2023-07-28T03:55:19;20.88;;;8.98;;
22812;SDS011;11573;51.334;3.244;2023-07-28T03:57:46;24.27;;;9.25;;
22812;SDS011;11573;51.334;3.244;2023-07-28T04:00:13;20.25;;;8.77;;
22812;SDS011;11573;51.334;3.244;2023-07-28T04:02:40;22.73;;;10.00;;
22812;SDS011;11573;51.334;3.244;2023-07-28T04:05:07;22.65;;;9.15;;
22812;SDS011;11573;51.334;3.244;2023-07-28T04:07:35;22.08;;;9.95;;
22812;SDS011;11573;51.334;3.244;2023-07-28T04:10:02;26.23;;;11.90;;
22812;SDS011;11573;51.334;3.244;2023-07-28T04:12:29;21.02;;;10.57;;
22812;SDS011;11573;51.334;3.244;2023-07-28T04:14:56;27.63;;;11.80;;
22812;SDS011;11573;51.334;3.244;2023-07-28T04:17:23;26.38;;;12.77;;
22812;SDS011;11573;51.334;3.244;2023-07-28T04:19:50;30.42;;;11.95;;
22812;SDS011;11573;51.334;3.244;2023-07-28T04:22:17;32.60;;;12.27;;
22812;SDS011;11573;51.334;3.244;2023-07-28T04:24:50;29.70;;;11.95;;
22812;SDS011;11573;51.334;3.244;2023-07-28T04:27:17;27.65;;;12.90;;
22812;SDS011;11573;51.334;3.244;2023-07-28T04:29:45;33.35;;;13.45;;
22812;SDS011;11573;51.334;3.244;2023-07-28T04:32:15;30.35;;;13.23;;
22812;SDS011;11573;51.334;3.244;2023-07-28T04:34:42;38.22;;;13.15;;
22812;SDS011;11573;51.334;3.244;2023-07-28T04:37:14;39.20;;;14.40;;
22812;SDS011;11573;51.334;3.244;2023-07-28T04:39:54;38.35;;;14.18;;
22812;SDS011;11573;51.334;3.244;2023-07-28T04:42:21;37.83;;;14.25;;
22812;SDS011;11573;51.334;3.244;2023-07-28T04:44:48;40.92;;;14.65;;
22812;SDS011;11573;51.334;3.244;2023-07-28T04:47:17;39.58;;;14.65;;
22812;SDS011;11573;51.334;3.244;2023-07-28T04:49:44;41.55;;;16.42;;
22812;SDS011;11573;51.334;3.244;2023-07-28T04:52:11;39.55;;;17.85;;
22812;SDS011;11573;51.334;3.244;2023-07-28T04:54:38;39.90;;;16.05;;
22812;SDS011;11573;51.334;3.244;2023-07-28T04:57:05;34.17;;;15.70;;
22812;SDS011;11573;51.334;3.244;2023-07-28T04:59:35;39.95;;;16.63;;
22812;SDS011;11573;51.334;3.244;2023-07-28T05:02:02;40.50;;;16.35;;
22812;SDS011;11573;51.334;3.244;2023-07-28T05:04:29;36.00;;;14.95;;
22812;SDS011;11573;51.334;3.244;2023-07-28T05:06:57;33.42;;;15.15;;
22812;SDS011;11573;51.334;3.244;2023-07-28T05:09:24;44.30;;;14.75;;
22812;SDS011;11573;51.334;3.244;2023-07-28T05:11:51;35.50;;;14.98;;
22812;SDS011;11573;51.334;3.244;2023-07-28T05:14:17;30.95;;;15.57;;
22812;SDS011;11573;51.334;3.244;2023-07-28T05:16:45;31.75;;;15.55;;
22812;SDS011;11573;51.334;3.244;2023-07-28T05:19:25;37.97;;;14.75;;
22812;SDS011;11573;51.334;3.244;2023-07-28T05:21:55;37.45;;;15.35;;
22812;SDS011;11573;51.334;3.244;2023-07-28T05:24:41;31.20;;;14.27;;
22812;SDS011;11573;51.334;3.244;2023-07-28T05:27:08;31.48;;;13.27;;
22812;SDS011;11573;51.334;3.244;2023-07-28T05:29:35;29.85;;;13.05;;
22812;SDS011;11573;51.334;3.244;2023-07-28T05:32:05;26.52;;;11.68;;
22812;SDS011;11573;51.334;3.244;2023-07-28T05:34:55;29.17;;;13.40;;
22812;SDS011;11573;51.334;3.244;2023-07-28T05:37:22;26.10;;;13.20;;
22812;SDS011;11573;51.334;3.244;2023-07-28T05:39:49;23.38;;;15.88;;
22812;SDS011;11573;51.334;3.244;2023-07-28T05:42:18;31.58;;;17.92;;
22812;SDS011;11573;51.334;3.244;2023-07-28T05:44:47;32.05;;;17.10;;
22812;SDS011;11573;51.334;3.244;2023-07-28T05:47:14;29.50;;;16.02;;
22812;SDS011;11573;51.334;3.244;2023-07-28T05:49:42;30.58;;;17.13;;
22812;SDS011;11573;51.334;3.244;2023-07-28T05:52:09;36.35;;;17.33;;
22812;SDS011;11573;51.334;3.244;2023-07-28T05:54:36;33.22;;;17.50;;
22812;SDS011;11573;51.334;3.244;2023-07-28T05:57:03;31.63;;;17.88;;
22812;SDS011;11573;51.334;3.244;2023-07-28T05:59:31;36.70;;;19.02;;
22812;SDS011;11573;51.334;3.244;2023-07-28T06:01:59;47.20;;;19.23;;
22812;SDS011;11573;51.334;3.244;2023-07-28T06:04:37;34.47;;;19.83;;
22812;SDS011;11573;51.334;3.244;2023-07-28T06:07:05;36.20;;;20.98;;
22812;SDS011;11573;51.334;3.244;2023-07-28T06:09:32;38.53;;;22.50;;
22812;SDS011;11573;51.334;3.244;2023-07-28T06:11:59;48.38;;;24.15;;
22812;SDS011;11573;51.334;3.244;2023-07-28T06:14:27;44.10;;;24.27;;
22812;SDS011;11573;51.334;3.244;2023-07-28T06:16:55;45.25;;;25.63;;
22812;SDS011;11573;51.334;3.244;2023-07-28T06:19:25;43.78;;;27.25;;
22812;SDS011;11573;51.334;3.244;2023-07-28T06:21:53;48.50;;;27.35;;
22812;SDS011;11573;51.334;3.244;2023-07-28T06:24:21;47.83;;;27.02;;
22812;SDS011;11573;51.334;3.244;2023-07-28T06:26:48;49.38;;;29.42;;
22812;SDS011;11573;51.334;3.244;2023-07-28T06:29:16;50.15;;;30.13;;
22812;SDS011;11573;51.334;3.244;2023-07-28T06:31:43;55.85;;;33.38;;
22812;SDS011;11573;51.334;3.244;2023-07-28T06:34:10;57.17;;;32.42;;
22812;SDS011;11573;51.334;3.244;2023-07-28T06:36:37;59.78;;;33.88;;
22812;SDS011;11573;51.334;3.244;2023-07-28T06:39:04;55.67;;;32.03;;
22812;SDS011;11573;51.334;3.244;2023-07-28T06:41:32;56.80;;;30.98;;
22812;SDS011;11573;51.334;3.244;2023-07-28T06:43:59;62.25;;;33.05;;
22812;SDS011;11573;51.334;3.244;2023-07-28T06:46:28;48.47;;;30.35;;
22812;SDS011;11573;51.334;3.244;2023-07-28T06:48:56;50.85;;;28.58;;
22812;SDS011;11573;51.334;3.244;2023-07-28T06:51:23;45.25;;;27.65;;
22812;SDS011;11573;51.334;3.244;2023-07-28T06:53:51;42.90;;;28.88;;
22812;SDS011;11573;51.334;3.244;2023-07-28T06:56:18;47.50;;;29.05;;
22812;SDS011;11573;51.334;3.244;2023-07-28T06:58:45;46.13;;;28.05;;
22812;SDS011;11573;51.334;3.244;2023-07-28T07:01:30;46.80;;;28.88;;
22812;SDS011;11573;51.334;3.244;2023-07-28T07:03:58;48.95;;;28.17;;
22812;SDS011;11573;51.334;3.244;2023-07-28T07:06:26;55.08;;;29.38;;
22812;SDS011;11573;51.334;3.244;2023-07-28T07:08:53;48.95;;;29.45;;
22812;SDS011;11573;51.334;3.244;2023-07-28T07:11:20;49.13;;;29.38;;
22812;SDS011;11573;51.334;3.244;2023-07-28T07:13:47;40.85;;;27.73;;
22812;SDS011;11573;51.334;3.244;2023-07-28T07:16:14;47.65;;;27.67;;
22812;SDS011;11573;51.334;3.244;2023-07-28T07:21:19;50.65;;;27.52;;
22812;SDS011;11573;51.334;3.244;2023-07-28T07:23:46;55.05;;;30.45;;
22812;SDS011;11573;51.334;3.244;2023-07-28T07:26:25;61.33;;;31.00;;
22812;SDS011;11573;51.334;3.244;2023-07-28T07:28:52;51.25;;;31.48;;
22812;SDS011;11573;51.334;3.244;2023-07-28T07:31:19;53.50;;;31.92;;
22812;SDS011;11573;51.334;3.244;2023-07-28T07:33:47;47.83;;;30.05;;
22812;SDS011;11573;51.334;3.244;2023-07-28T07:36:14;59.92;;;31.63;;
22812;SDS011;11573;51.334;3.244;2023-07-28T07:38:43;53.53;;;30.90;;
22812;SDS011;11573;51.334;3.244;2023-07-28T07:41:13;50.08;;;31.27;;
22812;SDS011;11573;51.334;3.244;2023-07-28T07:43:49;56.78;;;32.78;;
22812;SDS011;11573;51.334;3.244;2023-07-28T07:46:18;49.35;;;31.98;;
22812;SDS011;11573;51.334;3.244;2023-07-28T07:48:46;54.05;;;32.78;;
22812;SDS011;11573;51.334;3.244;2023-07-28T07:51:13;49.92;;;31.35;;
22812;SDS011;11573;51.334;3.244;2023-07-28T07:53:40;47.92;;;30.85;;
22812;SDS011;11573;51.334;3.244;2023-07-28T07:56:10;55.83;;;31.35;;
22812;SDS011;11573;51.334;3.244;2023-07-28T07:58:37;49.72;;;31.23;;
22812;SDS011;11573;51.334;3.244;2023-07-28T08:01:04;52.88;;;31.08;;
22812;SDS011;11573;51.334;3.244;2023-07-28T08:03:31;46.58;;;29.23;;
22812;SDS011;11573;51.334;3.244;2023-07-28T08:05:58;47.05;;;29.10;;
22812;SDS011;11573;51.334;3.244;2023-07-28T08:08:25;42.05;;;27.45;;
22812;SDS011;11573;51.334;3.244;2023-07-28T08:10:53;42.95;;;28.55;;
22812;SDS011;11573;51.334;3.244;2023-07-28T08:13:21;40.47;;;27.83;;
22812;SDS011;11573;51.334;3.244;2023-07-28T08:15:48;41.03;;;25.60;;
22812;SDS011;11573;51.334;3.244;2023-07-28T08:18:16;38.05;;;25.60;;
22812;SDS011;11573;51.334;3.244;2023-07-28T08:20:43;34.40;;;24.00;;
22812;SDS011;11573;51.334;3.244;2023-07-28T08:23:10;34.22;;;23.17;;
22812;SDS011;11573;51.334;3.244;2023-07-28T08:25:36;35.08;;;23.80;;
22812;SDS011;11573;51.334;3.244;2023-07-28T08:28:04;39.50;;;23.67;;
22812;SDS011;11573;51.334;3.244;2023-07-28T08:30:32;33.70;;;22.05;;
22812;SDS011;11573;51.334;3.244;2023-07-28T08:32:59;30.70;;;21.75;;
22812;SDS011;11573;51.334;3.244;2023-07-28T08:35:26;28.88;;;20.83;;
22812;SDS011;11573;51.334;3.244;2023-07-28T08:37:54;33.17;;;21.00;;
22812;SDS011;11573;51.334;3.244;2023-07-28T08:40:21;29.50;;;19.35;;
22812;SDS011;11573;51.334;3.244;2023-07-28T08:42:48;23.95;;;17.60;;
22812;SDS011;11573;51.334;3.244;2023-07-28T08:45:17;22.95;;;17.35;;
22812;SDS011;11573;51.334;3.244;2023-07-28T08:47:45;27.92;;;16.90;;
22812;SDS011;11573;51.334;3.244;2023-07-28T08:50:13;23.38;;;17.08;;
22812;SDS011;11573;51.334;3.244;2023-07-28T08:52:40;22.52;;;15.52;;
22812;SDS011;11573;51.334;3.244;2023-07-28T08:55:07;20.88;;;15.65;;
22812;SDS011;11573;51.334;3.244;2023-07-28T08:57:35;25.20;;;16.88;;
22812;SDS011;11573;51.334;3.244;2023-07-28T09:00:09;21.10;;;16.17;;
22812;SDS011;11573;51.334;3.244;2023-07-28T09:02:41;19.70;;;15.43;;
22812;SDS011;11573;51.334;3.244;2023-07-28T09:05:16;20.38;;;14.68;;
22812;SDS011;11573;51.334;3.244;2023-07-28T09:07:46;18.63;;;15.48;;
22812;SDS011;11573;51.334;3.244;2023-07-28T09:10:14;17.70;;;13.02;;
22812;SDS011;11573;51.334;3.244;2023-07-28T09:12:48;16.98;;;11.52;;
22812;SDS011;11573;51.334;3.244;2023-07-28T09:15:16;19.50;;;11.57;;
22812;SDS011;11573;51.334;3.244;2023-07-28T09:17:44;18.40;;;10.05;;
22812;SDS011;11573;51.334;3.244;2023-07-28T09:20:15;12.65;;;9.95;;
22812;SDS011;11573;51.334;3.244;2023-07-28T09:22:43;16.83;;;8.93;;
22812;SDS011;11573;51.334;3.244;2023-07-28T09:25:11;15.63;;;10.52;;
22812;SDS011;11573;51.334;3.244;2023-07-28T09:27:52;14.77;;;10.18;;
22812;SDS011;11573;51.334;3.244;2023-07-28T09:30:19;16.88;;;9.15;;
22812;SDS011;11573;51.334;3.244;2023-07-28T09:32:48;14.88;;;9.98;;
22812;SDS011;11573;51.334;3.244;2023-07-28T09:35:17;18.48;;;15.27;;
22812;SDS011;11573;51.334;3.244;2023-07-28T09:37:54;18.52;;;16.50;;
22812;SDS011;11573;51.334;3.244;2023-07-28T09:40:22;19.98;;;15.35;;
22812;SDS011;11573;51.334;3.244;2023-07-28T09:42:49;17.48;;;14.38;;
22812;SDS011;11573;51.334;3.244;2023-07-28T09:45:21;14.85;;;10.40;;
22812;SDS011;11573;51.334;3.244;2023-07-28T09:48:02;11.95;;;7.95;;
22812;SDS011;11573;51.334;3.244;2023-07-28T09:50:36;9.32;;;6.05;;
22812;SDS011;11573;51.334;3.244;2023-07-28T09:53:05;7.18;;;5.50;;
22812;SDS011;11573;51.334;3.244;2023-07-28T09:55:37;7.88;;;5.50;;
22812;SDS011;11573;51.334;3.244;2023-07-28T09:58:08;7.45;;;5.75;;
22812;SDS011;11573;51.334;3.244;2023-07-28T10:00:39;10.55;;;6.35;;
22812;SDS011;11573;51.334;3.244;2023-07-28T10:03:07;12.15;;;6.05;;
22812;SDS011;11573;51.334;3.244;2023-07-28T10:05:36;9.80;;;5.53;;
22812;SDS011;11573;51.334;3.244;2023-07-28T10:08:03;12.15;;;6.78;;
22812;SDS011;11573;51.334;3.244;2023-07-28T10:10:31;11.35;;;7.18;;
22812;SDS011;11573;51.334;3.244;2023-07-28T10:12:58;10.30;;;7.30;;
22812;SDS011;11573;51.334;3.244;2023-07-28T10:15:30;8.93;;;7.40;;
22812;SDS011;11573;51.334;3.244;2023-07-28T10:17:59;11.05;;;6.93;;
22812;SDS011;11573;51.334;3.244;2023-07-28T10:20:28;10.38;;;5.65;;
22812;SDS011;11573;51.334;3.244;2023-07-28T10:23:02;9.00;;;5.43;;
22812;SDS011;11573;51.334;3.244;2023-07-28T10:25:37;8.05;;;5.55;;
22812;SDS011;11573;51.334;3.244;2023-07-28T10:28:05;6.68;;;3.90;;
22812;SDS011;11573;51.334;3.244;2023-07-28T10:30:35;7.07;;;3.92;;
22812;SDS011;11573;51.334;3.244;2023-07-28T10:33:04;7.45;;;4.20;;
22812;SDS011;11573;51.334;3.244;2023-07-28T10:35:31;4.18;;;3.53;;
22812;SDS011;11573;51.334;3.244;2023-07-28T10:41:05;5.63;;;3.50;;
22812;SDS011;11573;51.334;3.244;2023-07-28T10:43:35;8.82;;;3.40;;
22812;SDS011;11573;51.334;3.244;2023-07-28T10:46:04;6.50;;;3.72;;
22812;SDS011;11573;51.334;3.244;2023-07-28T10:48:33;8.45;;;3.65;;
22812;SDS011;11573;51.334;3.244;2023-07-28T10:51:01;6.25;;;3.65;;
22812;SDS011;11573;51.334;3.244;2023-07-28T10:53:31;5.57;;;2.92;;
22812;SDS011;11573;51.334;3.244;2023-07-28T10:55:58;5.10;;;1.92;;
22812;SDS011;11573;51.334;3.244;2023-07-28T10:58:26;2.47;;;1.30;;
22812;SDS011;11573;51.334;3.244;2023-07-28T11:00:53;1.40;;;1.30;;
22812;SDS011;11573;51.334;3.244;2023-07-28T11:03:21;2.40;;;1.15;;
22812;SDS011;11573;51.334;3.244;2023-07-28T11:05:49;2.13;;;1.35;;
22812;SDS011;11573;51.334;3.244;2023-07-28T11:08:17;2.17;;;1.17;;
22812;SDS011;11573;51.334;3.244;2023-07-28T11:10:44;1.00;;;1.00;;
22812;SDS011;11573;51.334;3.244;2023-07-28T11:13:11;1.10;;;1.10;;
22812;SDS011;11573;51.334;3.244;2023-07-28T11:15:57;2.20;;;1.10;;
22812;SDS011;11573;51.334;3.244;2023-07-28T11:18:25;4.40;;;1.50;;
22812;SDS011;11573;51.334;3.244;2023-07-28T11:20:52;2.28;;;1.67;;
22812;SDS011;11573;51.334;3.244;2023-07-28T11:23:19;2.22;;;1.55;;
22812;SDS011;11573;51.334;3.244;2023-07-28T11:25:46;2.70;;;2.00;;
22812;SDS011;11573;51.334;3.244;2023-07-28T11:28:13;5.05;;;2.60;;
22812;SDS011;11573;51.334;3.244;2023-07-28T11:30:41;3.13;;;2.30;;
22812;SDS011;11573;51.334;3.244;2023-07-28T11:33:10;2.80;;;2.50;;
22812;SDS011;11573;51.334;3.244;2023-07-28T11:35:38;4.32;;;2.80;;
22812;SDS011;11573;51.334;3.244;2023-07-28T11:38:06;4.05;;;2.60;;
22812;SDS011;11573;51.334;3.244;2023-07-28T11:40:34;3.67;;;2.40;;
22812;SDS011;11573;51.334;3.244;2023-07-28T11:43:02;4.10;;;2.38;;
22812;SDS011;11573;51.334;3.244;2023-07-28T11:45:30;5.53;;;2.53;;
22812;SDS011;11573;51.334;3.244;2023-07-28T11:47:58;3.17;;;2.17;;
22812;SDS011;11573;51.334;3.244;2023-07-28T11:50:28;4.65;;;2.20;;
22812;SDS011;11573;51.334;3.244;2023-07-28T11:52:57;5.45;;;2.42;;
22812;SDS011;11573;51.334;3.244;2023-07-28T11:55:24;4.05;;;2.00;;
22812;SDS011;11573;51.334;3.244;2023-07-28T11:57:51;2.33;;;1.90;;
22812;SDS011;11573;51.334;3.244;2023-07-28T12:00:24;2.88;;;2.00;;
22812;SDS011;11573;51.334;3.244;2023-07-28T12:05:32;2.88;;;1.88;;
22812;SDS011;11573;51.334;3.244;2023-07-28T12:08:00;5.45;;;2.17;;
22812;SDS011;11573;51.334;3.244;2023-07-28T12:10:27;2.60;;;2.20;;
22812;SDS011;11573;51.334;3.244;2023-07-28T12:13:03;6.35;;;2.67;;
22812;SDS011;11573;51.334;3.244;2023-07-28T12:15:41;5.97;;;2.35;;
22812;SDS011;11573;51.334;3.244;2023-07-28T12:18:14;3.83;;;2.38;;
22812;SDS011;11573;51.334;3.244;2023-07-28T12:20:46;6.93;;;2.30;;
22812;SDS011;11573;51.334;3.244;2023-07-28T12:23:17;5.88;;;2.30;;
22812;SDS011;11573;51.334;3.244;2023-07-28T12:25:48;6.15;;;2.53;;
22812;SDS011;11573;51.334;3.244;2023-07-28T12:28:17;3.58;;;2.33;;
22812;SDS011;11573;51.334;3.244;2023-07-28T12:30:45;8.43;;;3.00;;
22812;SDS011;11573;51.334;3.244;2023-07-28T12:33:16;4.82;;;2.58;;
22812;SDS011;11573;51.334;3.244;2023-07-28T12:35:47;8.68;;;2.85;;
22812;SDS011;11573;51.334;3.244;2023-07-28T12:38:16;7.75;;;2.58;;
22812;SDS011;11573;51.334;3.244;2023-07-28T12:40:47;4.85;;;2.78;;
22812;SDS011;11573;51.334;3.244;2023-07-28T12:43:16;7.07;;;2.78;;
22812;SDS011;11573;51.334;3.244;2023-07-28T12:45:46;8.80;;;2.83;;
22812;SDS011;11573;51.334;3.244;2023-07-28T12:48:17;4.38;;;2.58;;
22812;SDS011;11573;51.334;3.244;2023-07-28T12:50:46;11.15;;;2.65;;
22812;SDS011;11573;51.334;3.244;2023-07-28T12:53:14;8.30;;;2.78;;
22812;SDS011;11573;51.334;3.244;2023-07-28T12:55:48;8.80;;;3.13;;
22812;SDS011;11573;51.334;3.244;2023-07-28T12:58:18;6.45;;;3.65;;
22812;SDS011;11573;51.334;3.244;2023-07-28T13:00:48;8.13;;;3.95;;
22812;SDS011;11573;51.334;3.244;2023-07-28T13:03:18;7.70;;;3.47;;
22812;SDS011;11573;51.334;3.244;2023-07-28T13:05:45;8.05;;;3.38;;
22812;SDS011;11573;51.334;3.244;2023-07-28T13:08:15;12.65;;;3.30;;
22812;SDS011;11573;51.334;3.244;2023-07-28T13:10:42;8.10;;;3.50;;
22812;SDS011;11573;51.334;3.244;2023-07-28T13:13:12;7.97;;;2.70;;
22812;SDS011;11573;51.334;3.244;2023-07-28T13:15:40;7.85;;;2.60;;
22812;SDS011;11573;51.334;3.244;2023-07-28T13:18:07;11.98;;;2.70;;
22812;SDS011;11573;51.334;3.244;2023-07-28T13:20:34;6.55;;;2.40;;
22812;SDS011;11573;51.334;3.244;2023-07-28T13:23:01;5.22;;;2.25;;
22812;SDS011;11573;51.334;3.244;2023-07-28T13:25:28;6.10;;;2.58;;
22812;SDS011;11573;51.334;3.244;2023-07-28T13:27:55;6.75;;;2.15;;
22812;SDS011;11573;51.334;3.244;2023-07-28T13:30:22;9.45;;;2.80;;
22812;SDS011;11573;51.334;3.244;2023-07-28T13:32:51;6.47;;;2.85;;
22812;SDS011;11573;51.334;3.244;2023-07-28T13:35:18;10.27;;;2.65;;
22812;SDS011;11573;51.334;3.244;2023-07-28T13:37:45;7.28;;;1.83;;
22812;SDS011;11573;51.334;3.244;2023-07-28T13:40:12;3.95;;;1.88;;
22812;SDS011;11573;51.334;3.244;2023-07-28T13:42:39;5.53;;;1.52;;
22812;SDS011;11573;51.334;3.244;2023-07-28T13:45:07;6.72;;;2.45;;
22812;SDS011;11573;51.334;3.244;2023-07-28T13:47:35;6.55;;;2.10;;
22812;SDS011;11573;51.334;3.244;2023-07-28T13:50:02;3.90;;;1.75;;
22812;SDS011;11573;51.334;3.244;2023-07-28T13:52:29;2.55;;;1.48;;
22812;SDS011;11573;51.334;3.244;2023-07-28T13:54:57;4.47;;;2.00;;
22812;SDS011;11573;51.334;3.244;2023-07-28T13:57:27;6.20;;;1.88;;
22812;SDS011;11573;51.334;3.244;2023-07-28T13:59:53;5.68;;;1.92;;
22812;SDS011;11573;51.334;3.244;2023-07-28T14:02:20;9.60;;;2.28;;
22812;SDS011;11573;51.334;3.244;2023-07-28T14:04:48;6.18;;;1.75;;
22812;SDS011;11573;51.334;3.244;2023-07-28T14:07:15;8.00;;;2.00;;
22812;SDS011;11573;51.334;3.244;2023-07-28T14:09:42;6.05;;;2.05;;
22812;SDS011;11573;51.334;3.244;2023-07-28T14:12:09;6.78;;;1.83;;
22812;SDS011;11573;51.334;3.244;2023-07-28T14:14:36;4.70;;;1.90;;
22812;SDS011;11573;51.334;3.244;2023-07-28T14:17:03;6.25;;;1.75;;
22812;SDS011;11573;51.334;3.244;2023-07-28T14:19:31;5.95;;;1.80;;
22812;SDS011;11573;51.334;3.244;2023-07-28T14:21:58;4.28;;;2.00;;
22812;SDS011;11573;51.334;3.244;2023-07-28T14:24:25;6.18;;;2.00;;
22812;SDS011;11573;51.334;3.244;2023-07-28T14:26:52;6.25;;;1.88;;
22812;SDS011;11573;51.334;3.244;2023-07-28T14:29:21;3.80;;;2.00;;
22812;SDS011;11573;51.334;3.244;2023-07-28T14:31:49;3.63;;;1.90;;
22812;SDS011;11573;51.334;3.244;2023-07-28T14:34:16;4.47;;;2.22;;
22812;SDS011;11573;51.334;3.244;2023-07-28T14:36:43;6.07;;;1.83;;
22812;SDS011;11573;51.334;3.244;2023-07-28T14:39:10;7.65;;;2.10;;
22812;SDS011;11573;51.334;3.244;2023-07-28T14:41:37;6.13;;;2.13;;
22812;SDS011;11573;51.334;3.244;2023-07-28T14:44:04;3.72;;;1.85;;
22812;SDS011;11573;51.334;3.244;2023-07-28T14:46:31;3.72;;;2.03;;
22812;SDS011;11573;51.334;3.244;2023-07-28T14:48:58;7.28;;;2.00;;
22812;SDS011;11573;51.334;3.244;2023-07-28T14:51:25;4.78;;;1.90;;
22812;SDS011;11573;51.334;3.244;2023-07-28T14:53:52;7.00;;;1.92;;
22812;SDS011;11573;51.334;3.244;2023-07-28T14:56:21;5.70;;;1.80;;
22812;SDS011;11573;51.334;3.244;2023-07-28T14:58:51;5.28;;;1.83;;